Time;durP1;ratioP1;P1;durP2;ratioP2;P2;SDS_P1;SDS_P2;PMS_P1;PMS_P2;Temp;Humidity;BMP_temperature;BMP_pressure;BME280_temperature;BME280_humidity;BME280_pressure;Samples;Min_cycle;Max_cycle;Signal;HPM_P1;HPM_P2
2022/01/01 00:02:57;;;;;;;;;;;;;;;;;;10243710;29;19934;-75
2022/01/01 00:08:02;;;;;;;;;;;;;;;;;;10259723;28;20464;-74
2022/01/01 00:13:05;;;;;;;;;;;;;;;;;;10250274;28;20351;-76
2022/01/01 00:18:08;;;;;;;;;;;;;;;;;;10235076;28;19927;-76
2022/01/01 00:23:11;;;;;;;;;;;;;;;;;;10235752;29;19933;-73
2022/01/01 00:28:15;;;;;;;;;;;;;;;;;;10237277;29;20288;-75
2022/01/01 00:33:17;;;;;;;;;;;;;;;;;;10234583;28;19961;-74
2022/01/01 00:38:20;;;;;;;;;;;;;;;;;;10230595;29;19922;-74
2022/01/01 00:43:24;;;;;;;;;;;;;;;;;;10235041;28;20037;-75
2022/01/01 00:48:27;;;;;;;;;;;;;;;;;;10234633;28;19927;-74
2022/01/01 00:53:41;;;;;;;;;;;;;;;;;;10238287;29;19926;-74
2022/01/01 00:58:44;;;;;;;;;;;;;;;;;;10236023;28;19933;-75
2022/01/01 01:03:47;;;;;;;;;;;;;;;;;;10239416;29;19948;-75
2022/01/01 01:08:51;;;;;;;;;;;;;;;;;;10231030;29;20025;-74
2022/01/01 01:13:58;;;;;;;;;;;;;;;;;;10239000;29;20406;-75
2022/01/01 01:19:01;;;;;;;;;;;;;;;;;;10233868;28;19927;-75
2022/01/01 01:24:04;;;;;;;;;;;;;;;;;;10228844;29;20362;-75
2022/01/01 01:29:06;;;;;;;;;;;;;;;;;;10240849;29;20021;-76
2022/01/01 01:34:09;;;;;;;;;;;;;;;;;;10230360;29;19970;-75
2022/01/01 01:39:16;;;;;;;;;;;;;;;;;;10234679;29;20021;-74
2022/01/01 01:44:19;;;;;;;;;;;;;;;;;;10236895;29;19937;-75
2022/01/01 01:49:22;;;;;;;;;;;;;;;;;;10231955;28;19993;-75
2022/01/01 01:54:25;;;;;;;;;;;;;;;;;;10230318;28;20323;-74
2022/01/01 01:59:28;;;;;;;;;;;;;;;;;;10236472;28;20622;-75
2022/01/01 02:04:31;;;;;;;;;;;;;;;;;;10236642;29;19945;-75
2022/01/01 02:09:35;;;;;;;;;;;;;;;;;;10232829;28;20426;-76
2022/01/01 02:14:52;;;;;;;;;;;;;;;;;;10250905;28;19948;-75
2022/01/01 02:19:59;;;;;;;;;;;;;;;;;;10223367;29;20424;-74
2022/01/01 02:25:02;;;;;;;;;;;;;;;;;;10228329;28;19922;-75
2022/01/01 02:30:05;;;;;;;;;;;;;;;;;;10233317;28;19922;-75
2022/01/01 02:35:08;;;;;;;;;;;;;;;;;;10243687;28;20345;-76
2022/01/01 02:40:11;;;;;;;;;;;;;;;;;;10232560;28;20193;-75
2022/01/01 02:45:14;;;;;;;;;;;;;;;;;;10232495;28;20009;-75
2022/01/01 02:50:18;;;;;;;;;;;;;;;;;;10235474;29;20421;-75
2022/01/01 02:55:21;;;;;;;;;;;;;;;;;;10232818;28;19922;-76
2022/01/01 03:00:24;;;;;;;;;;;;;;;;;;10230705;29;20026;-75
2022/01/01 03:05:27;;;;;;;;;;;;;;;;;;10222037;29;19926;-75
2022/01/01 03:10:30;;;;;;;;;;;;;;;;;;10221828;29;20467;-75
2022/01/01 03:15:36;;;;;;;;;;;;;;;;;;10221942;28;20431;-74
2022/01/01 03:20:39;;;;;;;;;;;;;;;;;;10216791;29;19942;-75
2022/01/01 03:25:42;;;;;;;;;;;;;;;;;;10221553;29;19922;-74
2022/01/01 03:30:45;;;;;;;;;;;;;;;;;;10227956;29;19973;-74
2022/01/01 03:35:48;;;;;;;;;;;;;;;;;;10233649;28;20048;-74
2022/01/01 03:40:50;;;;;;;;;;;;;;;;;;10229307;29;20383;-76
2022/01/01 03:45:53;;;;;;;;;;;;;;;;;;10227013;28;19970;-76
2022/01/01 03:50:56;;;;;;;;;;;;;;;;;;10229931;28;20411;-76
2022/01/01 03:55:58;;;;;;;;;;;;;;;;;;10222285;29;19994;-76
2022/01/01 04:01:01;;;;;;;;;;;;;;;;;;10216516;29;19932;-75
2022/01/01 04:06:04;;;;;;;;;;;;;;;;;;10225279;29;20021;-75
2022/01/01 04:11:07;;;;;;;;;;;;;;;;;;10228483;29;20473;-75
2022/01/01 04:16:11;;;;;;;;;;;;;;;;;;10222081;28;20001;-75
2022/01/01 04:21:13;;;;;;;;;;;;;;;;;;10218043;29;19923;-75
2022/01/01 04:26:16;;;;;;;;;;;;;;;;;;10233687;29;19977;-74
2022/01/01 04:31:18;;;;;;;;;;;;;;;;;;10234326;29;20021;-75
2022/01/01 04:36:22;;;;;;;;;;;;;;;;;;10237698;28;19942;-75
2022/01/01 04:41:25;;;;;;;;;;;;;;;;;;10236957;29;20028;-76
2022/01/01 04:46:28;;;;;;;;;;;;;;;;;;10238105;28;19934;-76
2022/01/01 04:51:30;;;;;;;;;;;;;;;;;;10233155;29;21147;-75
2022/01/01 04:56:34;;;;;;;;;;;;;;;;;;10230957;28;19944;-75
2022/01/01 05:01:36;;;;;;;;;;;;;;;;;;10236840;29;19922;-76
2022/01/01 05:06:40;;;;;;;;;;;;;;;;;;10239242;28;19927;-75
2022/01/01 05:11:42;;;;;;;;;;;;;;;;;;10235169;29;19929;-76
2022/01/01 05:16:45;;;;;;;;;;;;;;;;;;10235031;29;19926;-75
2022/01/01 05:21:48;;;;;;;;;;;;;;;;;;10234188;29;19923;-75
2022/01/01 05:26:50;;;;;;;;;;;;;;;;;;10218978;29;20529;-74
2022/01/01 05:31:53;;;;;;;;;;;;;;;;;;10232659;28;19969;-74
2022/01/01 05:36:55;;;;;;;;;;;;;;;;;;10231043;29;20002;-72
2022/01/01 05:41:59;;;;;;;;;;;;;;;;;;10244178;28;19926;-74
2022/01/01 05:47:01;;;;;;;;;;;;;;;;;;10246182;28;19929;-74
2022/01/01 05:52:04;;;;;;;;;;;;;;;;;;10235792;28;19926;-73
2022/01/01 05:57:07;;;;;;;;;;;;;;;;;;10254724;28;19996;-75
2022/01/01 06:02:11;;;;;;;7.63;3.00;;;;;;;;;;10235091;28;20457;-74
2022/01/01 06:07:14;;;;;;;7.15;2.45;;;;;;;;;;10232905;29;20111;-74
2022/01/01 06:12:17;;;;;;;4.95;2.20;;;;;;;;;;10232158;28;20499;-75
2022/01/01 06:17:21;;;;;;;6.47;2.63;;;;;;;;;;10229945;28;20043;-74
2022/01/01 06:22:23;;;;;;;;;;;;;;;;;;10230426;28;20035;-76
2022/01/01 06:27:26;;;;;;;7.55;3.08;;;;;;;;;;10230565;28;19931;-75
2022/01/01 06:32:32;;;;;;;8.23;2.97;;;;;;;;;;10242193;29;20047;-76
2022/01/01 06:37:35;;;;;;;4.38;2.05;;;;;;;;;;10250513;28;20883;-74
2022/01/01 06:42:38;;;;;;;4.43;1.40;;;;;;;;;;10233437;29;20134;-75
2022/01/01 06:47:42;;;;;;;4.68;2.20;;;;;;;;;;10231127;28;20066;-74
2022/01/01 06:52:45;;;;;;;;;;;;;;;;;;10231697;29;20046;-75
2022/01/01 06:57:48;;;;;;;6.53;2.00;;;;;;;;;;10243890;28;19922;-74
2022/01/01 07:02:52;;;;;;;2.23;1.20;;;;;;;;;;10226874;28;20649;-74
2022/01/01 07:07:55;;;;;;;5.68;2.17;;;;;;;;;;10231232;29;20804;-75
2022/01/01 07:12:58;;;;;;;8.88;2.38;;;;;;;;;;10224814;29;20054;-76
2022/01/01 07:18:02;;;;;;;4.30;1.83;;;;;;;;;;10227612;29;20114;-73
2022/01/01 07:23:04;;;;;;;;;;;;;;;;;;10236506;28;20047;-74
2022/01/01 07:28:09;;;;;;;4.93;2.13;;;;;;;;;;10237181;29;20034;-75
2022/01/01 07:33:14;;;;;;;4.55;2.13;;;;;;;;;;10226648;29;20146;-75
2022/01/01 07:38:16;;;;;;;6.07;2.60;;;;;;;;;;10225510;29;20043;-75
2022/01/01 07:43:20;;;;;;;5.28;2.33;;;;;;;;;;10227179;28;20070;-75
2022/01/01 07:48:24;;;;;;;3.63;2.08;;;;;;;;;;10227011;29;20051;-74
2022/01/01 07:53:27;;;;;;;5.50;2.13;;;;;;;;;;10225995;28;20571;-76
2022/01/01 07:58:31;;;;;;;5.10;2.58;;;;;;;;;;10233439;28;20059;-75
2022/01/01 08:03:33;;;;;;;;;;;;;;;;;;10233680;29;20054;-75
2022/01/01 08:08:38;;;;;;;3.38;2.00;;;;;;;;;;10240477;28;19934;-75
2022/01/01 08:13:40;;;;;;;4.68;2.40;;;;;;;;;;10260561;28;20066;-74
2022/01/01 08:18:43;;;;;;;5.28;2.17;;;;;;;;;;10232299;28;20042;-74
2022/01/01 08:23:47;;;;;;;7.03;2.53;;;;;;;;;;10238655;29;20078;-74
2022/01/01 08:28:50;;;;;;;6.10;2.45;;;;;;;;;;10237198;28;20047;-73
2022/01/01 08:33:53;;;;;;;5.03;2.60;;;;;;;;;;10238972;29;20518;-74
2022/01/01 08:38:57;;;;;;;5.05;2.53;;;;;;;;;;10233126;29;20046;-74
2022/01/01 08:44:00;;;;;;;5.22;2.05;;;;;;;;;;10239314;29;20118;-74
2022/01/01 08:49:05;;;;;;;4.97;2.40;;;;;;;;;;10233754;29;20054;-74
2022/01/01 08:54:14;;;;;;;4.43;2.45;;;;;;;;;;10225366;29;20484;-73
2022/01/01 08:59:17;;;;;;;4.32;2.58;;;;;;;;;;10236272;28;20103;-74
2022/01/01 09:04:20;;;;;;;5.55;2.45;;;;;;;;;;10222692;28;20039;-75
2022/01/01 09:09:22;;;;;;;;;;;;;;;;;;10226481;28;20043;-75
2022/01/01 09:14:30;;;;;;;4.47;2.80;;;;;;;;;;10237923;28;19927;-72
2022/01/01 09:19:34;;;;;;;4.45;2.42;;;;;;;;;;10228163;29;20062;-73
2022/01/01 09:24:37;;;;;;;6.68;2.90;;;;;;;;;;10234882;28;20035;-74
2022/01/01 09:29:42;;;;;;;5.45;2.88;;;;;;;;;;10230737;28;20119;-74
2022/01/01 09:34:46;;;;;;;6.93;3.70;;;;;;;;;;10232218;28;20040;-74
2022/01/01 09:39:49;;;;;;;7.18;3.65;;;;;;;;;;10236214;29;20051;-73
2022/01/01 09:44:54;;;;;;;4.45;2.80;;;;;;;;;;10226402;29;20040;-73
2022/01/01 09:49:57;;;;;;;3.75;3.00;;;;;;;;;;10260268;28;20130;-73
2022/01/01 09:55:00;;;;;;;4.90;3.20;;;;;;;;;;10254874;28;20128;-74
2022/01/01 10:00:06;;;;;;;5.93;3.58;;;;;;;;;;10229573;28;20139;-74
2022/01/01 10:05:09;;;;;;;5.30;3.50;;;;;;;;;;10219786;28;20043;-73
2022/01/01 10:10:20;;;;;;;4.85;3.55;;;;;;;;;;10235634;28;20036;-74
2022/01/01 10:15:24;;;;;;;6.60;4.28;;;;;;;;;;10246462;28;20047;-73
2022/01/01 10:20:28;;;;;;;4.07;3.05;;;;;;;;;;10238482;28;20027;-73
2022/01/01 10:30:57;;;;;;;4.70;3.20;;;;;;;;;;10251279;28;20027;-72
2022/01/01 10:36:06;;;;;;;4.78;3.20;;;;;;;;;;10244563;28;20049;-74
2022/01/01 10:41:10;;;;;;;4.80;3.15;;;;;;;;;;10234228;28;20031;-74
2022/01/01 10:46:15;;;;;;;6.88;3.50;;;;;;;;;;10225294;28;20137;-75
2022/01/01 10:51:19;;;;;;;4.65;3.20;;;;;;;;;;10232546;28;20051;-74
2022/01/01 10:56:22;;;;;;;7.05;3.20;;;;;;;;;;10237894;28;20118;-74
2022/01/01 11:01:27;;;;;;;3.63;2.78;;;;;;;;;;10245880;28;20027;-72
2022/01/01 11:06:32;;;;;;;3.55;3.00;;;;;;;;;;10242984;28;20035;-73
2022/01/01 11:11:36;;;;;;;3.75;2.65;;;;;;;;;;10239866;28;20408;-74
2022/01/01 11:16:42;;;;;;;4.43;3.10;;;;;;;;;;10236837;28;20562;-73
2022/01/01 11:21:45;;;;;;;4.20;3.15;;;;;;;;;;10229104;28;20047;-75
2022/01/01 11:26:49;;;;;;;4.28;3.10;;;;;;;;;;10233034;28;20106;-73
2022/01/01 11:31:55;;;;;;;4.93;3.17;;;;;;;;;;10247208;28;20035;-74
2022/01/01 11:36:58;;;;;;;4.28;3.58;;;;;;;;;;10241017;29;20390;-74
2022/01/01 11:42:12;;;;;;;4.45;3.08;;;;;;;;;;10234848;28;20039;-73
2022/01/01 11:47:18;;;;;;;6.20;4.85;;;;;;;;;;10244559;28;20167;-74
2022/01/01 11:52:38;;;;;;;3.72;3.15;;;;;;;;;;10235145;28;20040;-74
2022/01/01 11:57:54;;;;;;;5.50;3.67;;;;;;;;;;10252749;28;20440;-72
2022/01/01 12:03:12;;;;;;;4.28;3.22;;;;;;;;;;10245869;28;20099;-73
2022/01/01 12:08:36;;;;;;;3.30;2.95;;;;;;;;;;10248576;28;20043;-74
2022/01/01 12:13:40;;;;;;;3.60;3.05;;;;;;;;;;10246358;28;20039;-75
2022/01/01 12:18:43;;;;;;;6.97;4.00;;;;;;;;;;10243939;28;20112;-75
2022/01/01 12:23:54;;;;;;;5.22;3.33;;;;;;;;;;10235239;28;20039;-75
2022/01/01 12:29:01;;;;;;;3.53;2.70;;;;;;;;;;10230864;28;20098;-73
2022/01/01 12:34:09;;;;;;;5.70;3.17;;;;;;;;;;10261447;23;20062;-79
2022/01/01 12:39:14;;;;;;;5.13;3.80;;;;;;;;;;10281908;28;20035;-81
2022/01/01 12:44:18;;;;;;;6.35;3.20;;;;;;;;;;10244387;28;20103;-78
2022/01/01 12:49:21;;;;;;;3.67;3.05;;;;;;;;;;10222961;29;20036;-77
2022/01/01 12:54:28;;;;;;;4.85;3.10;;;;;;;;;;10217469;29;20052;-77
2022/01/01 12:59:32;;;;;;;5.03;3.20;;;;;;;;;;10217843;29;20043;-78
2022/01/01 13:04:35;;;;;;;3.80;3.00;;;;;;;;;;10223235;29;21006;-77
2022/01/01 13:09:41;;;;;;;4.43;2.78;;;;;;;;;;10217457;29;20032;-74
2022/01/01 13:14:44;;;;;;;4.82;2.80;;;;;;;;;;10229196;29;20409;-77
2022/01/01 13:19:47;;;;;;;4.57;2.60;;;;;;;;;;10220934;29;20057;-76
2022/01/01 13:24:53;;;;;;;3.65;2.80;;;;;;;;;;10220842;29;20512;-76
2022/01/01 13:29:56;;;;;;;6.90;2.90;;;;;;;;;;10219568;29;20046;-76
2022/01/01 13:35:01;;;;;;;5.85;3.13;;;;;;;;;;10215412;29;20040;-78
2022/01/01 13:40:06;;;;;;;3.78;2.50;;;;;;;;;;10216427;29;20132;-76
2022/01/01 13:45:10;;;;;;;5.97;2.22;;;;;;;;;;10214923;29;20043;-77
2022/01/01 13:50:14;;;;;;;4.68;1.90;;;;;;;;;;10212723;29;20153;-75
2022/01/01 13:55:22;;;;;;;4.15;2.10;;;;;;;;;;10215433;29;20039;-76
2022/01/01 14:00:25;;;;;;;2.40;1.70;;;;;;;;;;10219690;29;20055;-75
2022/01/01 14:05:29;;;;;;;3.20;1.70;;;;;;;;;;10223429;29;20086;-76
2022/01/01 14:10:34;;;;;;;2.92;1.70;;;;;;;;;;10212651;29;20040;-76
2022/01/01 14:15:39;;;;;;;4.68;2.03;;;;;;;;;;10220799;29;20508;-78
2022/01/01 14:20:44;;;;;;;5.72;1.83;;;;;;;;;;10225697;29;20336;-75
2022/01/01 14:25:54;;;;;;;6.25;2.78;;;;;;;;;;10228780;29;20128;-76
2022/01/01 14:30:59;;;;;;;2.92;1.50;;;;;;;;;;10229312;29;20496;-77
2022/01/01 14:36:03;;;;;;;4.15;1.75;;;;;;;;;;10229214;29;20138;-75
2022/01/01 14:41:06;;;;;;;;;;;;;;;;;;10225118;29;20042;-77
2022/01/01 14:46:11;;;;;;;4.13;1.70;;;;;;;;;;10225025;29;19953;-76
2022/01/01 14:51:19;;;;;;;6.55;2.00;;;;;;;;;;10224999;29;20055;-77
2022/01/01 14:56:37;;;;;;;3.42;1.77;;;;;;;;;;10231050;29;20111;-79
2022/01/01 15:01:43;;;;;;;3.70;1.83;;;;;;;;;;10227308;29;20079;-76
2022/01/01 15:06:47;;;;;;;4.03;1.73;;;;;;;;;;10233026;29;20035;-77
2022/01/01 15:11:56;;;;;;;2.15;1.08;;;;;;;;;;10231485;29;20292;-77
2022/01/01 15:17:04;;;;;;;1.85;0.90;;;;;;;;;;10225856;29;20440;-77
2022/01/01 15:22:11;;;;;;;2.53;1.55;;;;;;;;;;10222728;29;20678;-79
2022/01/01 15:27:18;;;;;;;3.08;1.02;;;;;;;;;;10226399;29;20043;-77
2022/01/01 15:37:53;;;;;;;2.50;1.17;;;;;;;;;;10224819;29;20036;-80
2022/01/01 15:42:57;;;;;;;2.40;1.50;;;;;;;;;;10218541;29;20072;-76
2022/01/01 15:48:02;;;;;;;4.60;2.05;;;;;;;;;;10222169;29;20042;-79
2022/01/01 15:53:06;;;;;;;4.68;1.92;;;;;;;;;;10217451;29;20040;-77
2022/01/01 15:58:09;;;;;;;3.42;1.88;;;;;;;;;;10221482;29;20114;-78
2022/01/01 16:03:18;;;;;;;4.28;1.88;;;;;;;;;;10216077;29;20051;-77
2022/01/01 16:08:23;;;;;;;8.27;2.60;;;;;;;;;;10223305;29;20789;-75
2022/01/01 16:13:27;;;;;;;7.13;3.25;;;;;;;;;;10226900;29;20538;-77
2022/01/01 16:18:36;;;;;;;6.32;3.05;;;;;;;;;;10223477;29;20044;-79
2022/01/01 16:23:41;;;;;;;6.20;2.60;;;;;;;;;;10231403;29;20028;-75
2022/01/01 16:28:45;;;;;;;8.95;2.88;;;;;;;;;;10241462;29;20042;-76
2022/01/01 16:33:50;;;;;;;9.05;3.47;;;;;;;;;;10239758;29;20031;-76
2022/01/01 16:38:54;;;;;;;7.93;3.67;;;;;;;;;;10228833;29;20036;-75
2022/01/01 16:44:04;;;;;;;9.52;3.70;;;;;;;;;;10232997;29;20035;-74
2022/01/01 16:49:09;;;;;;;11.63;4.38;;;;;;;;;;10237365;29;20135;-75
2022/01/01 16:54:14;;;;;;;9.60;4.10;;;;;;;;;;10236300;29;20047;-75
2022/01/01 16:59:18;;;;;;;8.30;4.18;;;;;;;;;;10228798;29;20039;-78
2022/01/01 17:04:22;;;;;;;;;;;;;;;;;;10227479;29;20384;-78
2022/01/01 17:09:26;;;;;;;11.38;3.58;;;;;;;;;;10218207;29;19934;-78
2022/01/01 17:14:29;;;;;;;14.85;5.22;;;;;;;;;;10218032;29;20039;-79
2022/01/01 17:19:42;;;;;;;10.27;4.32;;;;;;;;;;10213501;29;20040;-81
2022/01/01 17:24:48;;;;;;;10.65;4.70;;;;;;;;;;10207532;29;20095;-79
2022/01/01 17:29:53;;;;;;;12.65;5.55;;;;;;;;;;10199924;29;20035;-79
2022/01/01 17:35:14;;;;;;;11.90;4.70;;;;;;;;;;10214619;29;20816;-77
2022/01/01 17:40:20;;;;;;;10.85;4.72;;;;;;;;;;10214049;29;20047;-77
2022/01/01 17:45:25;;;;;;;10.48;4.35;;;;;;;;;;10222094;29;20043;-79
2022/01/01 17:50:30;;;;;;;8.70;4.47;;;;;;;;;;10215504;29;20043;-78
2022/01/01 17:55:38;;;;;;;11.55;5.07;;;;;;;;;;10212910;29;20098;-78
2022/01/01 18:00:42;;;;;;;13.80;5.22;;;;;;;;;;10219694;29;20058;-79
2022/01/01 18:05:46;;;;;;;13.48;5.28;;;;;;;;;;10215178;29;20261;-79
2022/01/01 18:10:52;;;;;;;12.43;5.20;;;;;;;;;;10210445;29;20038;-77
2022/01/01 18:15:56;;;;;;;10.05;4.72;;;;;;;;;;10215143;29;20040;-75
2022/01/01 18:21:00;;;;;;;9.45;3.78;;;;;;;;;;10217513;28;20424;-78
2022/01/01 18:26:09;;;;;;;15.20;6.07;;;;;;;;;;10200822;29;20054;-75
2022/01/01 18:31:17;;;;;;;14.18;5.78;;;;;;;;;;10196080;29;20067;-77
2022/01/01 18:36:20;;;;;;;15.23;5.90;;;;;;;;;;10202774;29;20051;-80
2022/01/01 18:41:26;;;;;;;15.07;6.20;;;;;;;;;;10197835;29;20107;-79
2022/01/01 18:46:29;;;;;;;8.10;3.53;;;;;;;;;;10228588;28;20063;-78
2022/01/01 18:51:34;;;;;;;10.38;3.22;;;;;;;;;;10214304;29;20044;-78
2022/01/01 18:56:43;;;;;;;12.57;4.97;;;;;;;;;;10218404;28;20040;-77
2022/01/01 19:01:47;;;;;;;7.60;3.53;;;;;;;;;;10211025;29;20102;-78
2022/01/01 19:06:55;;;;;;;14.52;4.90;;;;;;;;;;10221912;28;20484;-77
2022/01/01 19:12:01;;;;;;;15.18;5.43;;;;;;;;;;10204221;29;20046;-77
2022/01/01 19:17:05;;;;;;;9.02;3.65;;;;;;;;;;10205922;29;20044;-76
2022/01/01 19:22:11;;;;;;;12.65;5.05;;;;;;;;;;10205800;29;20087;-76
2022/01/01 19:27:16;;;;;;;12.50;5.22;;;;;;;;;;10207213;29;20060;-79
2022/01/01 19:32:20;;;;;;;15.77;5.57;;;;;;;;;;10198000;29;20118;-78
2022/01/01 19:37:23;;;;;;;13.52;5.15;;;;;;;;;;10193335;29;20048;-78
2022/01/01 19:42:32;;;;;;;10.40;4.97;;;;;;;;;;10207014;29;20049;-79
2022/01/01 19:47:37;;;;;;;9.38;4.00;;;;;;;;;;10207562;29;20039;-77
2022/01/01 19:52:42;;;;;;;10.18;3.58;;;;;;;;;;10207722;29;20042;-76
2022/01/01 19:57:46;;;;;;;11.23;4.50;;;;;;;;;;10228064;23;20068;-77
2022/01/01 20:02:49;;;;;;;5.57;2.55;;;;;;;;;;10242045;29;20035;-77
2022/01/01 20:07:53;;;;;;;5.47;2.03;;;;;;;;;;10239884;28;20118;-74
2022/01/01 20:12:58;;;;;;;12.57;4.77;;;;;;;;;;10251319;28;20037;-75
2022/01/01 20:18:01;;;;;;;12.65;5.25;;;;;;;;;;10256621;28;20161;-78
2022/01/01 20:23:04;;;;;;;16.98;5.95;;;;;;;;;;10266726;28;20035;-80
2022/01/01 20:28:09;;;;;;;7.90;3.43;;;;;;;;;;10273581;28;20063;-79
2022/01/01 20:33:12;;;;;;;6.30;3.20;;;;;;;;;;10265060;28;20113;-78
2022/01/01 20:38:15;;;;;;;7.30;3.13;;;;;;;;;;10268477;28;20059;-80
2022/01/01 20:43:20;;;;;;;6.45;3.45;;;;;;;;;;10279215;28;20031;-78
2022/01/01 20:48:23;;;;;;;3.47;2.03;;;;;;;;;;10269861;28;20051;-78
2022/01/01 20:53:26;;;;;;;7.50;3.30;;;;;;;;;;10254566;28;20043;-78
2022/01/01 20:58:31;;;;;;;6.17;2.30;;;;;;;;;;10267234;28;20067;-78
2022/01/01 21:03:34;;;;;;;7.80;3.10;;;;;;;;;;10271050;28;20035;-78
2022/01/01 21:08:38;;;;;;;8.00;3.15;;;;;;;;;;10283755;28;20039;-78
2022/01/01 21:13:43;;;;;;;5.75;2.80;;;;;;;;;;10253713;28;20046;-78
2022/01/01 21:18:48;;;;;;;5.70;2.33;;;;;;;;;;10247327;29;20047;-78
2022/01/01 21:23:53;;;;;;;4.47;2.40;;;;;;;;;;10251032;28;20038;-79
2022/01/01 21:28:57;;;;;;;3.53;2.00;;;;;;;;;;10241181;28;20051;-72
2022/01/01 21:34:00;;;;;;;6.28;2.70;;;;;;;;;;10246011;28;20039;-74
2022/01/01 21:39:04;;;;;;;5.85;2.63;;;;;;;;;;10238402;29;20059;-75
2022/01/01 21:44:09;;;;;;;7.83;2.60;;;;;;;;;;10245589;23;20040;-72
2022/01/01 21:49:12;;;;;;;7.72;3.28;;;;;;;;;;10235913;28;20398;-73
2022/01/01 21:54:16;;;;;;;6.13;2.73;;;;;;;;;;10247460;28;20511;-71
2022/01/01 21:59:26;;;;;;;8.68;3.00;;;;;;;;;;10233715;28;20504;-74
2022/01/01 22:04:30;;;;;;;11.80;3.55;;;;;;;;;;10243875;28;20049;-75
2022/01/01 22:09:33;;;;;;;6.97;2.88;;;;;;;;;;10233587;28;20086;-75
2022/01/01 22:14:37;;;;;;;5.70;2.67;;;;;;;;;;10240244;28;20122;-75
2022/01/01 22:19:41;;;;;;;5.72;2.85;;;;;;;;;;10226535;28;20043;-74
2022/01/01 22:24:44;;;;;;;7.03;3.23;;;;;;;;;;10246614;28;20127;-73
2022/01/01 22:29:49;;;;;;;8.55;3.25;;;;;;;;;;10234228;28;20480;-73
2022/01/01 22:34:52;;;;;;;7.00;3.28;;;;;;;;;;10237914;28;20044;-75
2022/01/01 22:39:55;;;;;;;13.63;4.93;;;;;;;;;;10224404;28;20403;-75
2022/01/01 22:45:00;;;;;;;7.60;3.20;;;;;;;;;;10218073;28;20113;-75
2022/01/01 22:50:03;;;;;;;7.80;3.40;;;;;;;;;;10240656;28;20519;-75
2022/01/01 22:55:07;;;;;;;9.03;3.90;;;;;;;;;;10245804;28;20043;-75
2022/01/01 23:00:41;;;;;;;7.57;3.17;;;;;;;;;;10236001;28;20495;-73
2022/01/01 23:05:44;;;;;;;8.90;3.10;;;;;;;;;;10232097;28;20334;-74
2022/01/01 23:10:47;;;;;;;6.68;3.10;;;;;;;;;;10242540;28;20054;-75
2022/01/01 23:15:52;;;;;;;6.75;3.00;;;;;;;;;;10241177;28;20047;-75
2022/01/01 23:20:56;;;;;;;9.15;3.25;;;;;;;;;;10232382;28;20046;-75
2022/01/01 23:26:00;;;;;;;9.52;3.88;;;;;;;;;;10229645;28;20067;-75
2022/01/01 23:31:06;;;;;;;9.32;4.00;;;;;;;;;;10228123;28;20464;-73
2022/01/01 23:36:09;;;;;;;6.70;3.67;;;;;;;;;;10235192;28;20517;-74
2022/01/01 23:41:12;;;;;;;9.20;3.80;;;;;;;;;;10241583;28;20046;-73
2022/01/01 23:46:18;;;;;;;10.90;3.58;;;;;;;;;;10233427;28;20466;-73
2022/01/01 23:51:24;;;;;;;9.52;3.50;;;;;;;;;;10232296;28;20320;-73
2022/01/01 23:56:29;;;;;;;8.93;3.33;;;;;;;;;;10252415;28;20142;-72
